sensor_id;sensor_type;location;lat;lon;timestamp;pressure;altitude;pressure_sealevel;temperature
28803;BMP280;15949;55.656;37.422;2023-09-30T00:01:55;99886.91;;;11.45
28803;BMP280;15949;55.656;37.422;2023-09-30T00:07:00;99880.47;;;11.42
28803;BMP280;15949;55.656;37.422;2023-09-30T00:12:06;99879.72;;;11.42
28803;BMP280;15949;55.656;37.422;2023-09-30T00:17:12;99877.75;;;11.39
28803;BMP280;15949;55.656;37.422;2023-09-30T00:22:18;99871.03;;;11.38
28803;BMP280;15949;55.656;37.422;2023-09-30T00:27:23;99870.25;;;11.37
28803;BMP280;15949;55.656;37.422;2023-09-30T00:32:29;99879.63;;;11.38
28803;BMP280;15949;55.656;37.422;2023-09-30T00:37:35;99868.59;;;11.33
28803;BMP280;15949;55.656;37.422;2023-09-30T00:42:41;99869.06;;;11.35
28803;BMP280;15949;55.656;37.422;2023-09-30T00:47:46;99861.13;;;11.31
28803;BMP280;15949;55.656;37.422;2023-09-30T00:52:52;99855.34;;;11.26
28803;BMP280;15949;55.656;37.422;2023-09-30T00:57:58;99856.63;;;11.20
28803;BMP280;15949;55.656;37.422;2023-09-30T01:03:04;99851.19;;;11.13
28803;BMP280;15949;55.656;37.422;2023-09-30T01:08:10;99858.13;;;11.09
28803;BMP280;15949;55.656;37.422;2023-09-30T01:13:16;99857.25;;;11.05
28803;BMP280;15949;55.656;37.422;2023-09-30T01:18:22;99863.44;;;11.00
28803;BMP280;15949;55.656;37.422;2023-09-30T01:23:27;99858.53;;;10.99
28803;BMP280;15949;55.656;37.422;2023-09-30T01:28:34;99850.25;;;10.97
28803;BMP280;15949;55.656;37.422;2023-09-30T01:33:40;99848.09;;;10.99
28803;BMP280;15949;55.656;37.422;2023-09-30T01:38:46;99853.03;;;11.00
28803;BMP280;15949;55.656;37.422;2023-09-30T01:43:51;99853.31;;;10.99
28803;BMP280;15949;55.656;37.422;2023-09-30T01:48:57;99850.91;;;10.94
28803;BMP280;15949;55.656;37.422;2023-09-30T01:54:03;99849.72;;;10.91
28803;BMP280;15949;55.656;37.422;2023-09-30T01:59:08;99845.47;;;10.86
28803;BMP280;15949;55.656;37.422;2023-09-30T02:04:14;99846.84;;;10.84
28803;BMP280;15949;55.656;37.422;2023-09-30T02:09:22;99843.06;;;10.81
28803;BMP280;15949;55.656;37.422;2023-09-30T02:14:28;99840.75;;;10.80
28803;BMP280;15949;55.656;37.422;2023-09-30T02:19:34;99841.09;;;10.78
28803;BMP280;15949;55.656;37.422;2023-09-30T02:24:40;99842.81;;;10.74
28803;BMP280;15949;55.656;37.422;2023-09-30T02:29:45;99843.44;;;10.71
28803;BMP280;15949;55.656;37.422;2023-09-30T02:34:51;99837.91;;;10.73
28803;BMP280;15949;55.656;37.422;2023-09-30T02:39:57;99832.59;;;10.69
28803;BMP280;15949;55.656;37.422;2023-09-30T02:45:04;99828.00;;;10.66
28803;BMP280;15949;55.656;37.422;2023-09-30T02:50:10;99823.69;;;10.70
28803;BMP280;15949;55.656;37.422;2023-09-30T02:55:19;99823.25;;;10.68
28803;BMP280;15949;55.656;37.422;2023-09-30T03:00:24;99817.91;;;10.65
28803;BMP280;15949;55.656;37.422;2023-09-30T03:05:31;99820.38;;;10.61
28803;BMP280;15949;55.656;37.422;2023-09-30T03:10:38;99821.88;;;10.50
28803;BMP280;15949;55.656;37.422;2023-09-30T03:15:46;99816.84;;;10.45
28803;BMP280;15949;55.656;37.422;2023-09-30T03:20:58;99815.31;;;10.44
28803;BMP280;15949;55.656;37.422;2023-09-30T03:26:05;99823.78;;;10.41
28803;BMP280;15949;55.656;37.422;2023-09-30T03:31:19;99827.34;;;10.37
28803;BMP280;15949;55.656;37.422;2023-09-30T03:36:25;99824.03;;;10.28
28803;BMP280;15949;55.656;37.422;2023-09-30T03:41:33;99825.41;;;10.25
28803;BMP280;15949;55.656;37.422;2023-09-30T03:46:40;99822.38;;;10.23
28803;BMP280;15949;55.656;37.422;2023-09-30T03:51:46;99816.25;;;10.19
28803;BMP280;15949;55.656;37.422;2023-09-30T03:56:52;99821.31;;;10.24
28803;BMP280;15949;55.656;37.422;2023-09-30T04:01:57;99812.06;;;10.26
28803;BMP280;15949;55.656;37.422;2023-09-30T04:07:03;99823.50;;;10.34
28803;BMP280;15949;55.656;37.422;2023-09-30T04:12:11;99815.38;;;10.36
28803;BMP280;15949;55.656;37.422;2023-09-30T04:17:16;99806.59;;;10.40
28803;BMP280;15949;55.656;37.422;2023-09-30T04:22:22;99812.72;;;10.44
28803;BMP280;15949;55.656;37.422;2023-09-30T04:27:30;99814.34;;;10.49
28803;BMP280;15949;55.656;37.422;2023-09-30T04:32:36;99803.44;;;10.55
28803;BMP280;15949;55.656;37.422;2023-09-30T04:37:42;99811.47;;;10.62
28803;BMP280;15949;55.656;37.422;2023-09-30T04:42:48;99815.44;;;10.68
28803;BMP280;15949;55.656;37.422;2023-09-30T04:47:55;99819.28;;;10.83
28803;BMP280;15949;55.656;37.422;2023-09-30T04:53:03;99821.16;;;10.95
28803;BMP280;15949;55.656;37.422;2023-09-30T04:58:09;99815.97;;;11.07
28803;BMP280;15949;55.656;37.422;2023-09-30T05:03:15;99814.25;;;11.23
28803;BMP280;15949;55.656;37.422;2023-09-30T05:08:21;99809.16;;;11.38
28803;BMP280;15949;55.656;37.422;2023-09-30T05:13:27;99809.88;;;11.51
28803;BMP280;15949;55.656;37.422;2023-09-30T05:18:33;99812.94;;;11.65
28803;BMP280;15949;55.656;37.422;2023-09-30T05:23:38;99804.75;;;11.79
28803;BMP280;15949;55.656;37.422;2023-09-30T05:28:44;99803.53;;;11.88
28803;BMP280;15949;55.656;37.422;2023-09-30T05:33:50;99799.81;;;12.01
28803;BMP280;15949;55.656;37.422;2023-09-30T05:38:55;99793.56;;;12.18
28803;BMP280;15949;55.656;37.422;2023-09-30T05:44:01;99784.69;;;12.35
28803;BMP280;15949;55.656;37.422;2023-09-30T05:49:07;99789.94;;;12.50
28803;BMP280;15949;55.656;37.422;2023-09-30T05:54:18;99781.78;;;12.67
28803;BMP280;15949;55.656;37.422;2023-09-30T05:59:24;99786.34;;;12.86
28803;BMP280;15949;55.656;37.422;2023-09-30T06:04:30;99781.91;;;13.02
28803;BMP280;15949;55.656;37.422;2023-09-30T06:09:38;99778.94;;;13.19
28803;BMP280;15949;55.656;37.422;2023-09-30T06:14:44;99778.22;;;13.38
28803;BMP280;15949;55.656;37.422;2023-09-30T06:19:50;99773.09;;;13.61
28803;BMP280;15949;55.656;37.422;2023-09-30T06:24:56;99772.72;;;13.78
28803;BMP280;15949;55.656;37.422;2023-09-30T06:30:01;99768.19;;;13.97
28803;BMP280;15949;55.656;37.422;2023-09-30T06:35:08;99762.72;;;14.25
28803;BMP280;15949;55.656;37.422;2023-09-30T06:40:15;99765.03;;;14.49
28803;BMP280;15949;55.656;37.422;2023-09-30T06:45:21;99755.28;;;14.72
28803;BMP280;15949;55.656;37.422;2023-09-30T06:50:27;99745.53;;;14.96
28803;BMP280;15949;55.656;37.422;2023-09-30T06:55:32;99757.13;;;15.21
28803;BMP280;15949;55.656;37.422;2023-09-30T07:00:40;99748.41;;;15.43
28803;BMP280;15949;55.656;37.422;2023-09-30T07:05:46;99749.44;;;15.68
28803;BMP280;15949;55.656;37.422;2023-09-30T07:10:55;99738.47;;;15.96
28803;BMP280;15949;55.656;37.422;2023-09-30T07:16:01;99734.16;;;16.17
28803;BMP280;15949;55.656;37.422;2023-09-30T07:21:07;99736.28;;;16.42
28803;BMP280;15949;55.656;37.422;2023-09-30T07:26:13;99724.78;;;16.71
28803;BMP280;15949;55.656;37.422;2023-09-30T07:31:20;99730.19;;;16.92
28803;BMP280;15949;55.656;37.422;2023-09-30T07:36:25;99726.56;;;17.21
28803;BMP280;15949;55.656;37.422;2023-09-30T07:41:34;99721.41;;;17.53
28803;BMP280;15949;55.656;37.422;2023-09-30T07:46:42;99721.47;;;17.81
28803;BMP280;15949;55.656;37.422;2023-09-30T07:51:48;99720.38;;;18.21
28803;BMP280;15949;55.656;37.422;2023-09-30T07:56:54;99720.75;;;18.44
28803;BMP280;15949;55.656;37.422;2023-09-30T08:02:01;99721.44;;;18.62
28803;BMP280;15949;55.656;37.422;2023-09-30T08:07:09;99708.97;;;18.80
28803;BMP280;15949;55.656;37.422;2023-09-30T08:12:15;99700.19;;;19.08
28803;BMP280;15949;55.656;37.422;2023-09-30T08:17:21;99697.81;;;19.27
28803;BMP280;15949;55.656;37.422;2023-09-30T08:22:26;99702.94;;;19.49
28803;BMP280;15949;55.656;37.422;2023-09-30T08:27:33;99693.72;;;19.74
28803;BMP280;15949;55.656;37.422;2023-09-30T08:32:39;99686.06;;;19.87
28803;BMP280;15949;55.656;37.422;2023-09-30T08:37:45;99671.47;;;20.09
28803;BMP280;15949;55.656;37.422;2023-09-30T08:42:52;99676.53;;;20.37
28803;BMP280;15949;55.656;37.422;2023-09-30T08:47:58;99667.19;;;20.59
28803;BMP280;15949;55.656;37.422;2023-09-30T08:53:10;99667.63;;;20.84
28803;BMP280;15949;55.656;37.422;2023-09-30T08:58:17;99671.72;;;20.89
28803;BMP280;15949;55.656;37.422;2023-09-30T09:03:27;99665.53;;;20.99
28803;BMP280;15949;55.656;37.422;2023-09-30T09:08:33;99665.50;;;21.02
28803;BMP280;15949;55.656;37.422;2023-09-30T09:13:50;99651.47;;;21.02
28803;BMP280;15949;55.656;37.422;2023-09-30T09:18:56;99656.53;;;21.20
28803;BMP280;15949;55.656;37.422;2023-09-30T09:24:02;99654.78;;;21.10
28803;BMP280;15949;55.656;37.422;2023-09-30T09:29:07;99650.63;;;21.09
28803;BMP280;15949;55.656;37.422;2023-09-30T09:34:14;99650.19;;;21.37
28803;BMP280;15949;55.656;37.422;2023-09-30T09:39:29;99645.25;;;21.62
28803;BMP280;15949;55.656;37.422;2023-09-30T09:44:38;99646.28;;;22.11
28803;BMP280;15949;55.656;37.422;2023-09-30T09:49:44;99631.25;;;21.81
28803;BMP280;15949;55.656;37.422;2023-09-30T09:54:51;99637.66;;;21.41
28803;BMP280;15949;55.656;37.422;2023-09-30T09:59:57;99637.63;;;21.64
28803;BMP280;15949;55.656;37.422;2023-09-30T10:05:04;99630.03;;;22.05
28803;BMP280;15949;55.656;37.422;2023-09-30T10:10:13;99631.69;;;22.38
28803;BMP280;15949;55.656;37.422;2023-09-30T10:20:36;99625.84;;;22.27
28803;BMP280;15949;55.656;37.422;2023-09-30T10:25:42;99619.03;;;21.87
28803;BMP280;15949;55.656;37.422;2023-09-30T10:31:13;99620.59;;;22.24
28803;BMP280;15949;55.656;37.422;2023-09-30T10:36:29;99621.19;;;22.31
28803;BMP280;15949;55.656;37.422;2023-09-30T10:46:47;99598.88;;;22.09
28803;BMP280;15949;55.656;37.422;2023-09-30T10:51:54;99603.78;;;22.30
28803;BMP280;15949;55.656;37.422;2023-09-30T10:57:01;99589.28;;;22.35
28803;BMP280;15949;55.656;37.422;2023-09-30T11:02:19;99582.97;;;22.45
28803;BMP280;15949;55.656;37.422;2023-09-30T11:07:26;99576.97;;;22.41
28803;BMP280;15949;55.656;37.422;2023-09-30T11:12:33;99578.19;;;22.56
28803;BMP280;15949;55.656;37.422;2023-09-30T11:17:39;99566.47;;;22.69
28803;BMP280;15949;55.656;37.422;2023-09-30T11:22:46;99559.34;;;22.82
28803;BMP280;15949;55.656;37.422;2023-09-30T11:27:52;99563.06;;;22.85
28803;BMP280;15949;55.656;37.422;2023-09-30T11:32:59;99555.03;;;22.72
28803;BMP280;15949;55.656;37.422;2023-09-30T11:38:05;99555.19;;;22.81
28803;BMP280;15949;55.656;37.422;2023-09-30T11:43:11;99544.47;;;22.69
28803;BMP280;15949;55.656;37.422;2023-09-30T11:48:18;99539.69;;;22.28
28803;BMP280;15949;55.656;37.422;2023-09-30T11:53:31;99531.19;;;22.17
28803;BMP280;15949;55.656;37.422;2023-09-30T11:58:37;99536.06;;;22.38
28803;BMP280;15949;55.656;37.422;2023-09-30T12:03:44;99526.56;;;22.21
28803;BMP280;15949;55.656;37.422;2023-09-30T12:08:52;99536.13;;;21.99
28803;BMP280;15949;55.656;37.422;2023-09-30T12:13:59;99521.50;;;21.91
28803;BMP280;15949;55.656;37.422;2023-09-30T12:19:05;99526.47;;;21.89
28803;BMP280;15949;55.656;37.422;2023-09-30T12:24:12;99520.81;;;21.67
28803;BMP280;15949;55.656;37.422;2023-09-30T12:29:22;99524.91;;;21.29
28803;BMP280;15949;55.656;37.422;2023-09-30T12:34:28;99512.91;;;21.21
28803;BMP280;15949;55.656;37.422;2023-09-30T12:39:34;99510.66;;;21.23
28803;BMP280;15949;55.656;37.422;2023-09-30T12:44:40;99509.94;;;20.96
28803;BMP280;15949;55.656;37.422;2023-09-30T12:49:45;99499.50;;;20.85
28803;BMP280;15949;55.656;37.422;2023-09-30T12:54:51;99490.97;;;20.97
28803;BMP280;15949;55.656;37.422;2023-09-30T12:59:56;99495.41;;;21.04
28803;BMP280;15949;55.656;37.422;2023-09-30T13:05:02;99486.38;;;21.01
28803;BMP280;15949;55.656;37.422;2023-09-30T13:10:08;99490.97;;;20.97
28803;BMP280;15949;55.656;37.422;2023-09-30T13:15:14;99487.06;;;20.82
28803;BMP280;15949;55.656;37.422;2023-09-30T13:20:20;99488.88;;;20.62
28803;BMP280;15949;55.656;37.422;2023-09-30T13:25:25;99474.75;;;20.46
28803;BMP280;15949;55.656;37.422;2023-09-30T13:30:32;99473.06;;;20.32
28803;BMP280;15949;55.656;37.422;2023-09-30T13:35:37;99467.75;;;20.32
28803;BMP280;15949;55.656;37.422;2023-09-30T13:40:43;99466.88;;;20.39
28803;BMP280;15949;55.656;37.422;2023-09-30T13:45:49;99456.72;;;20.37
28803;BMP280;15949;55.656;37.422;2023-09-30T13:51:03;99460.19;;;20.31
28803;BMP280;15949;55.656;37.422;2023-09-30T13:56:10;99461.31;;;20.03
28803;BMP280;15949;55.656;37.422;2023-09-30T14:01:15;99451.66;;;19.93
28803;BMP280;15949;55.656;37.422;2023-09-30T14:06:21;99451.09;;;19.75
28803;BMP280;15949;55.656;37.422;2023-09-30T14:11:27;99442.25;;;19.55
28803;BMP280;15949;55.656;37.422;2023-09-30T14:16:33;99440.56;;;19.34
28803;BMP280;15949;55.656;37.422;2023-09-30T14:21:40;99434.34;;;19.14
28803;BMP280;15949;55.656;37.422;2023-09-30T14:26:45;99439.84;;;18.89
28803;BMP280;15949;55.656;37.422;2023-09-30T14:31:51;99434.72;;;18.68
28803;BMP280;15949;55.656;37.422;2023-09-30T14:36:57;99433.31;;;18.53
28803;BMP280;15949;55.656;37.422;2023-09-30T14:42:02;99432.28;;;18.29
28803;BMP280;15949;55.656;37.422;2023-09-30T14:47:08;99426.78;;;18.03
28803;BMP280;15949;55.656;37.422;2023-09-30T14:52:14;99427.63;;;17.82
28803;BMP280;15949;55.656;37.422;2023-09-30T14:57:20;99421.63;;;17.71
28803;BMP280;15949;55.656;37.422;2023-09-30T15:02:27;99429.19;;;17.55
28803;BMP280;15949;55.656;37.422;2023-09-30T15:07:34;99428.84;;;17.42
28803;BMP280;15949;55.656;37.422;2023-09-30T15:12:39;99425.09;;;17.22
28803;BMP280;15949;55.656;37.422;2023-09-30T15:17:45;99417.97;;;17.12
28803;BMP280;15949;55.656;37.422;2023-09-30T15:22:50;99417.22;;;16.97
28803;BMP280;15949;55.656;37.422;2023-09-30T15:27:57;99420.19;;;16.78
28803;BMP280;15949;55.656;37.422;2023-09-30T15:33:03;99421.66;;;16.58
28803;BMP280;15949;55.656;37.422;2023-09-30T15:38:09;99420.13;;;16.47
28803;BMP280;15949;55.656;37.422;2023-09-30T15:43:14;99416.34;;;16.34
28803;BMP280;15949;55.656;37.422;2023-09-30T15:48:20;99416.31;;;16.23
28803;BMP280;15949;55.656;37.422;2023-09-30T15:53:26;99416.31;;;16.19
28803;BMP280;15949;55.656;37.422;2023-09-30T15:58:33;99409.16;;;16.16
28803;BMP280;15949;55.656;37.422;2023-09-30T16:03:39;99410.22;;;16.08
28803;BMP280;15949;55.656;37.422;2023-09-30T16:08:47;99411.69;;;15.95
28803;BMP280;15949;55.656;37.422;2023-09-30T16:13:53;99412.38;;;15.82
28803;BMP280;15949;55.656;37.422;2023-09-30T16:18:59;99402.09;;;15.59
28803;BMP280;15949;55.656;37.422;2023-09-30T16:24:05;99410.59;;;15.42
28803;BMP280;15949;55.656;37.422;2023-09-30T16:29:11;99403.78;;;15.30
28803;BMP280;15949;55.656;37.422;2023-09-30T16:34:16;99399.56;;;15.19
28803;BMP280;15949;55.656;37.422;2023-09-30T16:39:22;99400.69;;;15.18
28803;BMP280;15949;55.656;37.422;2023-09-30T16:44:28;99402.59;;;15.21
28803;BMP280;15949;55.656;37.422;2023-09-30T16:49:33;99386.84;;;15.24
28803;BMP280;15949;55.656;37.422;2023-09-30T16:54:40;99388.81;;;15.31
28803;BMP280;15949;55.656;37.422;2023-09-30T16:59:45;99380.50;;;15.32
28803;BMP280;15949;55.656;37.422;2023-09-30T17:04:51;99373.81;;;15.38
28803;BMP280;15949;55.656;37.422;2023-09-30T17:09:58;99369.66;;;15.30
28803;BMP280;15949;55.656;37.422;2023-09-30T17:15:06;99360.25;;;15.26
28803;BMP280;15949;55.656;37.422;2023-09-30T17:20:12;99363.63;;;15.26
28803;BMP280;15949;55.656;37.422;2023-09-30T17:25:19;99360.59;;;15.28
28803;BMP280;15949;55.656;37.422;2023-09-30T17:30:24;99351.97;;;15.27
28803;BMP280;15949;55.656;37.422;2023-09-30T17:35:30;99354.56;;;15.24
28803;BMP280;15949;55.656;37.422;2023-09-30T17:40:36;99344.06;;;15.24
28803;BMP280;15949;55.656;37.422;2023-09-30T17:45:44;99340.00;;;15.33
28803;BMP280;15949;55.656;37.422;2023-09-30T17:50:50;99333.31;;;15.36
28803;BMP280;15949;55.656;37.422;2023-09-30T17:55:56;99329.16;;;15.35
28803;BMP280;15949;55.656;37.422;2023-09-30T18:01:02;99327.69;;;15.41
28803;BMP280;15949;55.656;37.422;2023-09-30T18:06:09;99317.56;;;15.39
28803;BMP280;15949;55.656;37.422;2023-09-30T18:11:15;99319.09;;;15.47
28803;BMP280;15949;55.656;37.422;2023-09-30T18:16:22;99312.72;;;15.45
28803;BMP280;15949;55.656;37.422;2023-09-30T18:21:28;99309.34;;;15.48
28803;BMP280;15949;55.656;37.422;2023-09-30T18:26:34;99308.97;;;15.46
28803;BMP280;15949;55.656;37.422;2023-09-30T18:31:39;99295.84;;;15.53
28803;BMP280;15949;55.656;37.422;2023-09-30T18:36:45;99294.00;;;15.53
28803;BMP280;15949;55.656;37.422;2023-09-30T18:41:52;99297.72;;;15.56
28803;BMP280;15949;55.656;37.422;2023-09-30T18:46:57;99294.38;;;15.59
28803;BMP280;15949;55.656;37.422;2023-09-30T18:52:03;99294.69;;;15.47
28803;BMP280;15949;55.656;37.422;2023-09-30T18:57:09;99281.88;;;15.38
28803;BMP280;15949;55.656;37.422;2023-09-30T19:02:14;99279.59;;;15.30
28803;BMP280;15949;55.656;37.422;2023-09-30T19:07:20;99275.88;;;15.31
28803;BMP280;15949;55.656;37.422;2023-09-30T19:12:26;99269.44;;;15.28
28803;BMP280;15949;55.656;37.422;2023-09-30T19:17:32;99264.19;;;15.32
28803;BMP280;15949;55.656;37.422;2023-09-30T19:22:38;99259.69;;;15.32
28803;BMP280;15949;55.656;37.422;2023-09-30T19:27:43;99263.50;;;15.31
28803;BMP280;15949;55.656;37.422;2023-09-30T19:32:49;99258.59;;;15.26
28803;BMP280;15949;55.656;37.422;2023-09-30T19:37:55;99255.88;;;15.16
28803;BMP280;15949;55.656;37.422;2023-09-30T19:43:00;99249.13;;;15.15
28803;BMP280;15949;55.656;37.422;2023-09-30T19:48:06;99252.88;;;15.14
28803;BMP280;15949;55.656;37.422;2023-09-30T19:53:12;99246.09;;;15.09
28803;BMP280;15949;55.656;37.422;2023-09-30T19:58:18;99246.47;;;15.08
28803;BMP280;15949;55.656;37.422;2023-09-30T20:03:24;99243.44;;;15.02
28803;BMP280;15949;55.656;37.422;2023-09-30T20:08:30;99244.16;;;14.96
28803;BMP280;15949;55.656;37.422;2023-09-30T20:13:36;99240.72;;;14.92
28803;BMP280;15949;55.656;37.422;2023-09-30T20:18:41;99239.59;;;14.89
28803;BMP280;15949;55.656;37.422;2023-09-30T20:23:47;99228.66;;;14.80
28803;BMP280;15949;55.656;37.422;2023-09-30T20:28:55;99227.88;;;14.72
28803;BMP280;15949;55.656;37.422;2023-09-30T20:34:01;99216.59;;;14.68
28803;BMP280;15949;55.656;37.422;2023-09-30T20:39:08;99220.34;;;14.67
28803;BMP280;15949;55.656;37.422;2023-09-30T20:44:15;99225.59;;;14.67
28803;BMP280;15949;55.656;37.422;2023-09-30T20:49:21;99222.53;;;14.65
28803;BMP280;15949;55.656;37.422;2023-09-30T20:54:27;99227.44;;;14.63
28803;BMP280;15949;55.656;37.422;2023-09-30T20:59:33;99215.84;;;14.68
28803;BMP280;15949;55.656;37.422;2023-09-30T21:04:38;99216.63;;;14.72
28803;BMP280;15949;55.656;37.422;2023-09-30T21:09:44;99203.84;;;14.67
28803;BMP280;15949;55.656;37.422;2023-09-30T21:14:51;99204.19;;;14.65
28803;BMP280;15949;55.656;37.422;2023-09-30T21:19:57;99197.41;;;14.57
28803;BMP280;15949;55.656;37.422;2023-09-30T21:25:03;99191.72;;;14.52
28803;BMP280;15949;55.656;37.422;2023-09-30T21:30:09;99182.81;;;14.60
28803;BMP280;15949;55.656;37.422;2023-09-30T21:35:14;99186.91;;;14.57
28803;BMP280;15949;55.656;37.422;2023-09-30T21:40:21;99182.06;;;14.59
28803;BMP280;15949;55.656;37.422;2023-09-30T21:45:27;99182.44;;;14.61
28803;BMP280;15949;55.656;37.422;2023-09-30T21:50:32;99167.44;;;14.58
28803;BMP280;15949;55.656;37.422;2023-09-30T21:55:38;99168.59;;;14.64
28803;BMP280;15949;55.656;37.422;2023-09-30T22:00:45;99166.41;;;14.73
28803;BMP280;15949;55.656;37.422;2023-09-30T22:05:53;99160.00;;;14.74
28803;BMP280;15949;55.656;37.422;2023-09-30T22:11:00;99155.53;;;14.75
28803;BMP280;15949;55.656;37.422;2023-09-30T22:16:07;99146.91;;;14.74
28803;BMP280;15949;55.656;37.422;2023-09-30T22:21:13;99145.78;;;14.72
28803;BMP280;15949;55.656;37.422;2023-09-30T22:26:19;99142.00;;;14.69
28803;BMP280;15949;55.656;37.422;2023-09-30T22:31:24;99152.13;;;14.64
28803;BMP280;15949;55.656;37.422;2023-09-30T22:36:31;99137.84;;;14.61
28803;BMP280;15949;55.656;37.422;2023-09-30T22:41:38;99132.66;;;14.68
28803;BMP280;15949;55.656;37.422;2023-09-30T22:46:44;99129.25;;;14.64
28803;BMP280;15949;55.656;37.422;2023-09-30T22:51:50;99126.22;;;14.62
28803;BMP280;15949;55.656;37.422;2023-09-30T22:56:55;99120.97;;;14.59
28803;BMP280;15949;55.656;37.422;2023-09-30T23:02:01;99114.13;;;14.47
28803;BMP280;15949;55.656;37.422;2023-09-30T23:07:07;99108.13;;;14.43
28803;BMP280;15949;55.656;37.422;2023-09-30T23:12:15;99107.72;;;14.38
28803;BMP280;15949;55.656;37.422;2023-09-30T23:17:20;99103.56;;;14.33
28803;BMP280;15949;55.656;37.422;2023-09-30T23:22:27;99104.31;;;14.34
28803;BMP280;15949;55.656;37.422;2023-09-30T23:27:33;99101.31;;;14.28
28803;BMP280;15949;55.656;37.422;2023-09-30T23:32:40;99102.00;;;14.25
28803;BMP280;15949;55.656;37.422;2023-09-30T23:37:49;99097.16;;;14.27
28803;BMP280;15949;55.656;37.422;2023-09-30T23:42:56;99089.97;;;14.17
28803;BMP280;15949;55.656;37.422;2023-09-30T23:48:04;99092.19;;;14.15
28803;BMP280;15949;55.656;37.422;2023-09-30T23:53:11;99085.81;;;14.12
28803;BMP280;15949;55.656;37.422;2023-09-30T23:58:17;99078.28;;;14.11
